Main page
METAR-TAF:

METAR-TAF

Airports :

Lydd Airport

Lydd, England

latitude: 50-57N, longitude: 000-56E, elevation: 3 m

Current weather observation

The report was made 22 minutes ago, at 18:20 UTC
Wind 11 kt from the South/Southeast
Temperature 12°C
Humidity 94%
Pressure 1022 hPa
Visibility 10 km or more
no clouds below 1500 m and no cumulonimbus

METAR: EGMD 141820Z 16011KT CAVOK 12/11 Q1022

Time: 18:42 (18:42 UTC)

Forecast

The report was made 1 hour and 43 minutes ago, at 16:59 UTC
Forecast valid from 14 at 18 UTC to 15 at 03 UTC
Wind 7 kt from the South/Southeast
Visibility 10 km or more
Scattered clouds at a height of 1500 ft
Becoming
from 14 at 18 UTC to 14 at 21 UTC
Visibility: 8000 m
Broken clouds at a height of 900 ft
Temporary
from 14 at 20 UTC to 15 at 03 UTC
Visibility: 3000 m
Broken clouds at a height of 400 ft
mist

TAF: EGMD 141659Z 1418/1503 15007KT 9999 SCT015 BECMG 1418/1421 8000 BKN009 TEMPO 1420/1503 3000 BR BKN004

Weather observations and forecasts of more than 4000 airports (METAR and TAF reports).

The available stations are represented by yellow and red dots on the map.

Hover mouse over dot to see the name of the station.

Then click to see weather observations and forecasts.

To change the map : click on the green buttons with a black cross to zoom in, on the green button with a dash to zoom out, or on the green arrows for adjacent maps.


METAR-TAF: